sensor_id;sensor_type;location;lat;lon;timestamp;pressure;altitude;pressure_sealevel;temperature;humidity
20710;BME280;10516;51.518;9.864;2023-04-28T00:01:12;98872.22;;;7.24;62.09
20710;BME280;10516;51.518;9.864;2023-04-28T00:03:38;98870.78;;;7.39;61.78
20710;BME280;10516;51.518;9.864;2023-04-28T00:06:03;98877.75;;;7.64;62.03
20710;BME280;10516;51.518;9.864;2023-04-28T00:08:28;98862.84;;;7.74;61.26
20710;BME280;10516;51.518;9.864;2023-04-28T00:10:54;98867.50;;;7.79;61.67
20710;BME280;10516;51.518;9.864;2023-04-28T00:13:19;98857.41;;;7.69;62.22
20710;BME280;10516;51.518;9.864;2023-04-28T00:15:44;98861.06;;;7.33;61.77
20710;BME280;10516;51.518;9.864;2023-04-28T00:18:10;98862.47;;;6.76;64.61
20710;BME280;10516;51.518;9.864;2023-04-28T00:20:35;98857.31;;;6.63;65.05
20710;BME280;10516;51.518;9.864;2023-04-28T00:23:00;98857.59;;;6.73;64.86
20710;BME280;10516;51.518;9.864;2023-04-28T00:25:25;98851.59;;;6.96;63.77
20710;BME280;10516;51.518;9.864;2023-04-28T00:27:51;98859.16;;;6.81;63.98
20710;BME280;10516;51.518;9.864;2023-04-28T00:30:16;98849.63;;;6.92;64.66
20710;BME280;10516;51.518;9.864;2023-04-28T00:32:41;98848.66;;;6.86;64.40
20710;BME280;10516;51.518;9.864;2023-04-28T00:35:07;98853.59;;;6.53;65.34
20710;BME280;10516;51.518;9.864;2023-04-28T00:37:34;98845.97;;;6.56;64.60
20710;BME280;10516;51.518;9.864;2023-04-28T00:39:59;98838.78;;;6.75;63.92
20710;BME280;10516;51.518;9.864;2023-04-28T00:42:25;98840.84;;;6.43;65.35
20710;BME280;10516;51.518;9.864;2023-04-28T00:44:50;98836.34;;;6.26;65.96
20710;BME280;10516;51.518;9.864;2023-04-28T00:47:16;98830.16;;;6.50;65.49
20710;BME280;10516;51.518;9.864;2023-04-28T00:49:41;98829.25;;;6.56;64.54
20710;BME280;10516;51.518;9.864;2023-04-28T00:52:07;98828.44;;;7.03;64.25
20710;BME280;10516;51.518;9.864;2023-04-28T00:54:32;98832.56;;;6.51;65.01
20710;BME280;10516;51.518;9.864;2023-04-28T00:57:01;98834.50;;;6.26;66.04
20710;BME280;10516;51.518;9.864;2023-04-28T00:59:27;98822.28;;;6.25;66.98
20710;BME280;10516;51.518;9.864;2023-04-28T01:01:52;98822.38;;;6.66;64.82
20710;BME280;10516;51.518;9.864;2023-04-28T01:04:19;98821.50;;;6.72;65.60
20710;BME280;10516;51.518;9.864;2023-04-28T01:06:44;98811.44;;;6.45;66.23
20710;BME280;10516;51.518;9.864;2023-04-28T01:09:10;98803.06;;;6.30;65.98
20710;BME280;10516;51.518;9.864;2023-04-28T01:11:35;98799.09;;;6.21;66.75
20710;BME280;10516;51.518;9.864;2023-04-28T01:14:01;98800.81;;;6.33;66.11
20710;BME280;10516;51.518;9.864;2023-04-28T01:16:27;98795.19;;;6.71;65.22
20710;BME280;10516;51.518;9.864;2023-04-28T01:18:53;98792.00;;;6.80;64.67
20710;BME280;10516;51.518;9.864;2023-04-28T01:21:27;98787.25;;;7.12;64.15
20710;BME280;10516;51.518;9.864;2023-04-28T01:23:55;98794.22;;;7.36;63.03
20710;BME280;10516;51.518;9.864;2023-04-28T01:26:20;98783.97;;;7.75;61.86
20710;BME280;10516;51.518;9.864;2023-04-28T01:28:46;98785.47;;;7.59;62.27
20710;BME280;10516;51.518;9.864;2023-04-28T01:31:12;98784.31;;;7.90;61.79
20710;BME280;10516;51.518;9.864;2023-04-28T01:33:37;98789.06;;;7.99;62.15
20710;BME280;10516;51.518;9.864;2023-04-28T01:36:02;98785.34;;;8.00;60.95
20710;BME280;10516;51.518;9.864;2023-04-28T01:38:27;98784.88;;;7.92;61.50
20710;BME280;10516;51.518;9.864;2023-04-28T01:40:53;98778.28;;;8.06;62.11
20710;BME280;10516;51.518;9.864;2023-04-28T01:43:18;98778.25;;;8.17;61.31
20710;BME280;10516;51.518;9.864;2023-04-28T01:45:44;98768.88;;;8.15;61.17
20710;BME280;10516;51.518;9.864;2023-04-28T01:48:09;98772.03;;;8.12;61.83
20710;BME280;10516;51.518;9.864;2023-04-28T01:50:34;98776.53;;;8.11;61.70
20710;BME280;10516;51.518;9.864;2023-04-28T01:53:00;98772.75;;;8.07;61.89
20710;BME280;10516;51.518;9.864;2023-04-28T01:55:25;98778.66;;;7.75;61.85
20710;BME280;10516;51.518;9.864;2023-04-28T01:57:50;98773.13;;;7.53;63.05
20710;BME280;10516;51.518;9.864;2023-04-28T02:00:15;98767.91;;;7.58;63.03
20710;BME280;10516;51.518;9.864;2023-04-28T02:02:41;98758.59;;;6.91;64.14
20710;BME280;10516;51.518;9.864;2023-04-28T02:05:06;98758.31;;;6.69;65.59
20710;BME280;10516;51.518;9.864;2023-04-28T02:07:31;98753.28;;;6.32;65.99
20710;BME280;10516;51.518;9.864;2023-04-28T02:09:57;98753.25;;;6.79;65.07
20710;BME280;10516;51.518;9.864;2023-04-28T02:12:22;98754.44;;;6.54;66.03
20710;BME280;10516;51.518;9.864;2023-04-28T02:14:47;98742.16;;;6.71;65.40
20710;BME280;10516;51.518;9.864;2023-04-28T02:17:12;98739.00;;;6.51;66.17
20710;BME280;10516;51.518;9.864;2023-04-28T02:19:37;98740.44;;;6.47;66.34
20710;BME280;10516;51.518;9.864;2023-04-28T02:22:03;98745.41;;;6.43;65.60
20710;BME280;10516;51.518;9.864;2023-04-28T02:24:28;98744.31;;;6.62;65.57
20710;BME280;10516;51.518;9.864;2023-04-28T02:26:53;98735.25;;;6.70;66.48
20710;BME280;10516;51.518;9.864;2023-04-28T02:29:18;98741.50;;;6.46;65.36
20710;BME280;10516;51.518;9.864;2023-04-28T02:31:44;98732.63;;;6.22;66.28
20710;BME280;10516;51.518;9.864;2023-04-28T02:34:09;98723.38;;;6.43;65.89
20710;BME280;10516;51.518;9.864;2023-04-28T02:36:34;98725.34;;;6.47;66.05
20710;BME280;10516;51.518;9.864;2023-04-28T02:38:59;98714.31;;;6.50;66.17
20710;BME280;10516;51.518;9.864;2023-04-28T02:41:25;98714.00;;;6.58;65.90
20710;BME280;10516;51.518;9.864;2023-04-28T02:43:50;98705.97;;;6.88;65.01
20710;BME280;10516;51.518;9.864;2023-04-28T02:46:15;98705.25;;;6.28;66.56
20710;BME280;10516;51.518;9.864;2023-04-28T02:48:41;98702.03;;;6.38;66.38
20710;BME280;10516;51.518;9.864;2023-04-28T02:51:06;98705.78;;;6.48;66.51
20710;BME280;10516;51.518;9.864;2023-04-28T02:53:31;98707.13;;;6.80;65.01
20710;BME280;10516;51.518;9.864;2023-04-28T02:55:56;98703.06;;;6.66;65.40
20710;BME280;10516;51.518;9.864;2023-04-28T02:58:22;98700.59;;;6.53;65.73
20710;BME280;10516;51.518;9.864;2023-04-28T03:00:47;98696.91;;;6.96;63.91
20710;BME280;10516;51.518;9.864;2023-04-28T03:03:12;98685.94;;;7.15;63.69
20710;BME280;10516;51.518;9.864;2023-04-28T03:05:38;98688.81;;;6.79;65.41
20710;BME280;10516;51.518;9.864;2023-04-28T03:08:03;98682.84;;;7.07;64.35
20710;BME280;10516;51.518;9.864;2023-04-28T03:10:29;98680.47;;;6.75;65.10
20710;BME280;10516;51.518;9.864;2023-04-28T03:12:54;98677.19;;;7.38;63.60
20710;BME280;10516;51.518;9.864;2023-04-28T03:15:19;98684.22;;;7.32;63.97
20710;BME280;10516;51.518;9.864;2023-04-28T03:17:45;98687.31;;;7.41;64.14
20710;BME280;10516;51.518;9.864;2023-04-28T03:20:10;98683.06;;;7.28;63.73
20710;BME280;10516;51.518;9.864;2023-04-28T03:22:35;98681.44;;;7.39;64.35
20710;BME280;10516;51.518;9.864;2023-04-28T03:25:01;98678.78;;;7.50;64.23
20710;BME280;10516;51.518;9.864;2023-04-28T03:27:26;98666.84;;;7.76;62.74
20710;BME280;10516;51.518;9.864;2023-04-28T03:29:51;98673.94;;;7.47;63.16
20710;BME280;10516;51.518;9.864;2023-04-28T03:32:16;98665.31;;;7.29;63.97
20710;BME280;10516;51.518;9.864;2023-04-28T03:34:42;98666.78;;;6.90;64.47
20710;BME280;10516;51.518;9.864;2023-04-28T03:37:07;98663.34;;;7.13;64.53
20710;BME280;10516;51.518;9.864;2023-04-28T03:39:32;98658.00;;;7.01;64.16
20710;BME280;10516;51.518;9.864;2023-04-28T03:41:57;98651.44;;;6.92;64.24
20710;BME280;10516;51.518;9.864;2023-04-28T03:44:23;98647.16;;;6.79;65.17
20710;BME280;10516;51.518;9.864;2023-04-28T03:46:48;98647.75;;;7.28;64.49
20710;BME280;10516;51.518;9.864;2023-04-28T03:49:14;98649.69;;;6.86;64.81
20710;BME280;10516;51.518;9.864;2023-04-28T03:51:39;98636.34;;;7.16;63.68
20710;BME280;10516;51.518;9.864;2023-04-28T03:54:05;98638.19;;;6.92;63.89
20710;BME280;10516;51.518;9.864;2023-04-28T03:56:30;98634.25;;;7.29;63.37
20710;BME280;10516;51.518;9.864;2023-04-28T03:58:55;98635.63;;;6.74;65.44
20710;BME280;10516;51.518;9.864;2023-04-28T04:01:20;98632.63;;;6.29;65.21
20710;BME280;10516;51.518;9.864;2023-04-28T04:03:46;98627.22;;;6.36;65.79
20710;BME280;10516;51.518;9.864;2023-04-28T04:06:11;98620.06;;;6.25;65.86
20710;BME280;10516;51.518;9.864;2023-04-28T04:08:37;98625.72;;;6.28;66.37
20710;BME280;10516;51.518;9.864;2023-04-28T04:11:02;98630.53;;;6.61;65.84
20710;BME280;10516;51.518;9.864;2023-04-28T04:13:27;98627.31;;;6.59;64.98
20710;BME280;10516;51.518;9.864;2023-04-28T04:15:53;98627.06;;;6.60;64.54
20710;BME280;10516;51.518;9.864;2023-04-28T04:18:18;98633.44;;;6.30;65.99
20710;BME280;10516;51.518;9.864;2023-04-28T04:20:43;98619.97;;;6.31;66.10
20710;BME280;10516;51.518;9.864;2023-04-28T04:23:08;98620.56;;;6.45;65.25
20710;BME280;10516;51.518;9.864;2023-04-28T04:25:34;98622.91;;;6.64;65.50
20710;BME280;10516;51.518;9.864;2023-04-28T04:28:00;98620.97;;;6.71;64.65
20710;BME280;10516;51.518;9.864;2023-04-28T04:30:25;98614.50;;;6.67;65.19
20710;BME280;10516;51.518;9.864;2023-04-28T04:32:50;98618.34;;;6.30;65.83
20710;BME280;10516;51.518;9.864;2023-04-28T04:35:15;98614.38;;;6.62;65.38
20710;BME280;10516;51.518;9.864;2023-04-28T04:37:41;98614.66;;;6.72;65.69
20710;BME280;10516;51.518;9.864;2023-04-28T04:40:06;98621.53;;;6.50;66.05
20710;BME280;10516;51.518;9.864;2023-04-28T04:42:32;98624.09;;;6.27;66.30
20710;BME280;10516;51.518;9.864;2023-04-28T04:44:57;98612.56;;;6.22;66.06
20710;BME280;10516;51.518;9.864;2023-04-28T04:47:23;98608.78;;;6.29;66.71
20710;BME280;10516;51.518;9.864;2023-04-28T04:49:48;98609.34;;;6.31;66.41
20710;BME280;10516;51.518;9.864;2023-04-28T04:52:14;98614.63;;;6.61;66.20
20710;BME280;10516;51.518;9.864;2023-04-28T04:54:39;98612.78;;;6.61;66.05
20710;BME280;10516;51.518;9.864;2023-04-28T04:57:05;98612.78;;;6.61;65.73
20710;BME280;10516;51.518;9.864;2023-04-28T04:59:31;98611.03;;;6.44;66.65
20710;BME280;10516;51.518;9.864;2023-04-28T05:01:56;98610.13;;;6.61;66.54
20710;BME280;10516;51.518;9.864;2023-04-28T05:04:21;98610.34;;;6.60;66.16
20710;BME280;10516;51.518;9.864;2023-04-28T05:06:46;98615.84;;;6.35;66.32
20710;BME280;10516;51.518;9.864;2023-04-28T05:09:12;98610.56;;;6.58;66.24
20710;BME280;10516;51.518;9.864;2023-04-28T05:11:37;98605.28;;;6.93;65.72
20710;BME280;10516;51.518;9.864;2023-04-28T05:14:02;98610.72;;;6.98;65.21
20710;BME280;10516;51.518;9.864;2023-04-28T05:16:29;98616.22;;;6.62;66.41
20710;BME280;10516;51.518;9.864;2023-04-28T05:18:55;98610.50;;;7.00;65.64
20710;BME280;10516;51.518;9.864;2023-04-28T05:21:20;98614.88;;;6.94;65.27
20710;BME280;10516;51.518;9.864;2023-04-28T05:23:45;98606.69;;;6.84;65.33
20710;BME280;10516;51.518;9.864;2023-04-28T05:26:11;98612.44;;;7.04;65.19
20710;BME280;10516;51.518;9.864;2023-04-28T05:28:37;98617.41;;;7.35;65.41
20710;BME280;10516;51.518;9.864;2023-04-28T05:31:03;98617.34;;;7.58;64.99
20710;BME280;10516;51.518;9.864;2023-04-28T05:33:28;98609.69;;;7.11;65.86
20710;BME280;10516;51.518;9.864;2023-04-28T05:35:53;98612.78;;;7.19;66.32
20710;BME280;10516;51.518;9.864;2023-04-28T05:38:18;98605.19;;;7.11;65.66
20710;BME280;10516;51.518;9.864;2023-04-28T05:40:44;98596.72;;;7.49;65.22
20710;BME280;10516;51.518;9.864;2023-04-28T05:43:09;98614.22;;;7.62;65.74
20710;BME280;10516;51.518;9.864;2023-04-28T05:45:34;98606.81;;;7.64;65.23
20710;BME280;10516;51.518;9.864;2023-04-28T05:47:59;98607.50;;;7.71;65.28
20710;BME280;10516;51.518;9.864;2023-04-28T05:50:25;98609.22;;;7.77;65.61
20710;BME280;10516;51.518;9.864;2023-04-28T05:52:52;98611.09;;;7.65;66.37
20710;BME280;10516;51.518;9.864;2023-04-28T05:55:17;98608.81;;;7.45;67.25
20710;BME280;10516;51.518;9.864;2023-04-28T05:57:43;98617.16;;;7.25;68.24
20710;BME280;10516;51.518;9.864;2023-04-28T06:00:08;98617.28;;;7.42;67.55
20710;BME280;10516;51.518;9.864;2023-04-28T06:02:33;98606.81;;;7.64;68.52
20710;BME280;10516;51.518;9.864;2023-04-28T06:05:00;98610.25;;;7.76;67.63
20710;BME280;10516;51.518;9.864;2023-04-28T06:07:25;98614.06;;;7.80;67.96
20710;BME280;10516;51.518;9.864;2023-04-28T06:09:50;98603.72;;;7.95;68.73
20710;BME280;10516;51.518;9.864;2023-04-28T06:12:15;98600.13;;;7.61;71.26
20710;BME280;10516;51.518;9.864;2023-04-28T06:14:41;98596.31;;;7.69;70.32
20710;BME280;10516;51.518;9.864;2023-04-28T06:17:07;98588.72;;;7.89;70.37
20710;BME280;10516;51.518;9.864;2023-04-28T06:19:32;98586.47;;;7.97;70.71
20710;BME280;10516;51.518;9.864;2023-04-28T06:21:58;98589.72;;;7.99;72.28
20710;BME280;10516;51.518;9.864;2023-04-28T06:24:23;98591.75;;;7.81;73.89
20710;BME280;10516;51.518;9.864;2023-04-28T06:26:48;98587.25;;;8.09;71.76
20710;BME280;10516;51.518;9.864;2023-04-28T06:29:13;98593.81;;;7.90;71.97
20710;BME280;10516;51.518;9.864;2023-04-28T06:31:38;98587.22;;;7.93;73.37
20710;BME280;10516;51.518;9.864;2023-04-28T06:34:04;98577.28;;;8.16;72.73
20710;BME280;10516;51.518;9.864;2023-04-28T06:36:29;98579.22;;;8.21;72.69
20710;BME280;10516;51.518;9.864;2023-04-28T06:38:54;98577.84;;;8.18;72.40
20710;BME280;10516;51.518;9.864;2023-04-28T06:41:20;98576.16;;;8.12;72.90
20710;BME280;10516;51.518;9.864;2023-04-28T06:43:45;98575.25;;;8.23;72.29
20710;BME280;10516;51.518;9.864;2023-04-28T06:46:10;98571.81;;;8.23;72.47
20710;BME280;10516;51.518;9.864;2023-04-28T06:48:35;98570.03;;;8.12;74.35
20710;BME280;10516;51.518;9.864;2023-04-28T06:51:01;98578.44;;;8.37;72.50
20710;BME280;10516;51.518;9.864;2023-04-28T06:53:26;98573.69;;;8.39;73.10
20710;BME280;10516;51.518;9.864;2023-04-28T06:55:51;98568.22;;;8.01;73.86
20710;BME280;10516;51.518;9.864;2023-04-28T06:58:17;98571.75;;;8.06;74.00
20710;BME280;10516;51.518;9.864;2023-04-28T07:00:42;98567.69;;;8.15;74.00
20710;BME280;10516;51.518;9.864;2023-04-28T07:03:07;98572.56;;;8.35;73.32
20710;BME280;10516;51.518;9.864;2023-04-28T07:05:33;98566.16;;;8.19;73.46
20710;BME280;10516;51.518;9.864;2023-04-28T07:07:58;98569.59;;;8.03;74.87
20710;BME280;10516;51.518;9.864;2023-04-28T07:10:23;98566.78;;;8.10;73.71
20710;BME280;10516;51.518;9.864;2023-04-28T07:12:49;98563.06;;;8.11;74.79
20710;BME280;10516;51.518;9.864;2023-04-28T07:15:16;98562.50;;;8.37;73.37
20710;BME280;10516;51.518;9.864;2023-04-28T07:17:41;98561.13;;;8.35;73.21
20710;BME280;10516;51.518;9.864;2023-04-28T07:20:06;98558.38;;;8.46;73.01
20710;BME280;10516;51.518;9.864;2023-04-28T07:22:32;98561.69;;;8.37;73.94
20710;BME280;10516;51.518;9.864;2023-04-28T07:24:57;98567.25;;;8.35;73.06
20710;BME280;10516;51.518;9.864;2023-04-28T07:27:22;98558.69;;;8.50;73.33
20710;BME280;10516;51.518;9.864;2023-04-28T07:29:48;98566.94;;;8.48;73.58
20710;BME280;10516;51.518;9.864;2023-04-28T07:32:13;98555.00;;;8.51;72.52
20710;BME280;10516;51.518;9.864;2023-04-28T07:34:38;98558.31;;;8.58;73.34
20710;BME280;10516;51.518;9.864;2023-04-28T07:37:03;98560.25;;;8.62;73.42
20710;BME280;10516;51.518;9.864;2023-04-28T07:39:32;98554.28;;;8.55;73.50
20710;BME280;10516;51.518;9.864;2023-04-28T07:41:58;98556.63;;;8.07;77.70
20710;BME280;10516;51.518;9.864;2023-04-28T07:44:24;98547.75;;;8.29;75.96
20710;BME280;10516;51.518;9.864;2023-04-28T07:46:49;98549.53;;;8.57;74.25
20710;BME280;10516;51.518;9.864;2023-04-28T07:49:15;98546.94;;;8.62;73.58
20710;BME280;10516;51.518;9.864;2023-04-28T07:51:41;98559.09;;;8.75;72.94
20710;BME280;10516;51.518;9.864;2023-04-28T07:54:06;98553.94;;;8.68;73.85
20710;BME280;10516;51.518;9.864;2023-04-28T07:56:32;98564.13;;;8.71;73.81
20710;BME280;10516;51.518;9.864;2023-04-28T07:58:57;98538.22;;;8.83;73.12
20710;BME280;10516;51.518;9.864;2023-04-28T08:01:24;98546.84;;;8.74;74.08
20710;BME280;10516;51.518;9.864;2023-04-28T08:03:50;98531.84;;;8.84;73.33
20710;BME280;10516;51.518;9.864;2023-04-28T08:06:15;98530.06;;;9.12;72.62
20710;BME280;10516;51.518;9.864;2023-04-28T08:08:40;98536.50;;;9.16;73.18
20710;BME280;10516;51.518;9.864;2023-04-28T08:11:06;98526.69;;;9.16;71.97
20710;BME280;10516;51.518;9.864;2023-04-28T08:13:32;98522.09;;;9.12;72.63
20710;BME280;10516;51.518;9.864;2023-04-28T08:15:57;98507.56;;;9.19;73.03
20710;BME280;10516;51.518;9.864;2023-04-28T08:18:24;98504.75;;;9.31;72.35
20710;BME280;10516;51.518;9.864;2023-04-28T08:20:49;98499.13;;;9.27;73.28
20710;BME280;10516;51.518;9.864;2023-04-28T08:23:15;98499.38;;;9.47;72.17
20710;BME280;10516;51.518;9.864;2023-04-28T08:25:40;98507.78;;;9.39;73.44
20710;BME280;10516;51.518;9.864;2023-04-28T08:28:06;98503.94;;;9.52;72.75
20710;BME280;10516;51.518;9.864;2023-04-28T08:30:32;98511.03;;;9.41;77.92
20710;BME280;10516;51.518;9.864;2023-04-28T08:32:58;98503.50;;;9.60;74.23
20710;BME280;10516;51.518;9.864;2023-04-28T08:35:23;98506.41;;;9.85;72.46
20710;BME280;10516;51.518;9.864;2023-04-28T08:37:48;98501.59;;;9.82;75.15
20710;BME280;10516;51.518;9.864;2023-04-28T08:40:15;98498.19;;;9.87;75.06
20710;BME280;10516;51.518;9.864;2023-04-28T08:42:40;98497.97;;;9.93;74.32
20710;BME280;10516;51.518;9.864;2023-04-28T08:45:05;98498.88;;;10.04;74.18
20710;BME280;10516;51.518;9.864;2023-04-28T08:47:33;98499.78;;;10.14;73.67
20710;BME280;10516;51.518;9.864;2023-04-28T08:50:05;98503.06;;;10.21;72.48
20710;BME280;10516;51.518;9.864;2023-04-28T08:52:31;98499.66;;;10.31;72.39
20710;BME280;10516;51.518;9.864;2023-04-28T08:54:57;98490.59;;;10.32;71.84
20710;BME280;10516;51.518;9.864;2023-04-28T08:57:23;98497.06;;;10.41;72.91
20710;BME280;10516;51.518;9.864;2023-04-28T08:59:51;98496.22;;;10.35;73.93
20710;BME280;10516;51.518;9.864;2023-04-28T09:02:16;98498.13;;;10.40;73.70
20710;BME280;10516;51.518;9.864;2023-04-28T09:04:42;98499.25;;;10.44;74.08
20710;BME280;10516;51.518;9.864;2023-04-28T09:07:11;98501.31;;;10.42;74.46
20710;BME280;10516;51.518;9.864;2023-04-28T09:09:36;98496.34;;;10.50;73.87
20710;BME280;10516;51.518;9.864;2023-04-28T09:12:02;98497.78;;;10.26;75.42
20710;BME280;10516;51.518;9.864;2023-04-28T09:14:28;98494.66;;;10.39;73.37
20710;BME280;10516;51.518;9.864;2023-04-28T09:16:54;98490.00;;;10.25;75.16
20710;BME280;10516;51.518;9.864;2023-04-28T09:19:20;98498.06;;;10.30;74.09
20710;BME280;10516;51.518;9.864;2023-04-28T09:21:46;98494.13;;;10.37;74.25
20710;BME280;10516;51.518;9.864;2023-04-28T09:24:24;98493.25;;;10.32;73.53
20710;BME280;10516;51.518;9.864;2023-04-28T09:26:49;98503.13;;;10.31;74.33
20710;BME280;10516;51.518;9.864;2023-04-28T09:29:15;98486.84;;;10.28;75.10
20710;BME280;10516;51.518;9.864;2023-04-28T09:31:40;98479.13;;;10.31;74.50
20710;BME280;10516;51.518;9.864;2023-04-28T09:34:06;98471.81;;;10.17;76.51
20710;BME280;10516;51.518;9.864;2023-04-28T09:36:33;98466.03;;;10.30;74.64
20710;BME280;10516;51.518;9.864;2023-04-28T09:38:59;98464.13;;;10.25;75.66
20710;BME280;10516;51.518;9.864;2023-04-28T09:44:19;98462.16;;;10.47;75.00
20710;BME280;10516;51.518;9.864;2023-04-28T09:46:46;98467.22;;;10.44;76.06
20710;BME280;10516;51.518;9.864;2023-04-28T09:49:11;98458.19;;;10.55;74.58
20710;BME280;10516;51.518;9.864;2023-04-28T09:51:37;98453.66;;;10.55;75.21
20710;BME280;10516;51.518;9.864;2023-04-28T09:54:03;98452.34;;;10.58;75.84
20710;BME280;10516;51.518;9.864;2023-04-28T09:56:29;98448.88;;;10.52;76.06
20710;BME280;10516;51.518;9.864;2023-04-28T09:58:58;98446.50;;;10.61;76.10
20710;BME280;10516;51.518;9.864;2023-04-28T10:01:26;98445.28;;;10.79;75.25
20710;BME280;10516;51.518;9.864;2023-04-28T10:03:54;98451.97;;;10.86;75.01
20710;BME280;10516;51.518;9.864;2023-04-28T10:06:20;98460.22;;;10.80;74.44
20710;BME280;10516;51.518;9.864;2023-04-28T10:08:46;98444.75;;;10.77;74.88
20710;BME280;10516;51.518;9.864;2023-04-28T10:11:14;98450.59;;;10.74;75.36
20710;BME280;10516;51.518;9.864;2023-04-28T10:13:40;98438.31;;;10.78;75.47
20710;BME280;10516;51.518;9.864;2023-04-28T10:16:06;98434.09;;;10.87;75.25
20710;BME280;10516;51.518;9.864;2023-04-28T10:18:32;98443.69;;;10.88;75.49
20710;BME280;10516;51.518;9.864;2023-04-28T10:20:59;98440.44;;;10.76;75.93
20710;BME280;10516;51.518;9.864;2023-04-28T10:25:53;98438.63;;;10.86;76.75
20710;BME280;10516;51.518;9.864;2023-04-28T10:28:21;98438.34;;;10.88;76.49
20710;BME280;10516;51.518;9.864;2023-04-28T10:33:31;98437.78;;;10.76;77.16
20710;BME280;10516;51.518;9.864;2023-04-28T10:35:56;98430.53;;;10.71;77.26
20710;BME280;10516;51.518;9.864;2023-04-28T10:38:21;98432.63;;;10.64;77.67
20710;BME280;10516;51.518;9.864;2023-04-28T10:40:48;98437.50;;;10.72;77.29
20710;BME280;10516;51.518;9.864;2023-04-28T10:58:37;98411.09;;;10.76;77.60
20710;BME280;10516;51.518;9.864;2023-04-28T11:06:19;98428.66;;;10.67;77.57
20710;BME280;10516;51.518;9.864;2023-04-28T11:08:45;98415.34;;;10.72;77.90
20710;BME280;10516;51.518;9.864;2023-04-28T11:11:17;98421.22;;;10.74;77.15
20710;BME280;10516;51.518;9.864;2023-04-28T11:13:43;98416.09;;;10.62;78.01
20710;BME280;10516;51.518;9.864;2023-04-28T11:16:12;98415.84;;;10.64;77.95
20710;BME280;10516;51.518;9.864;2023-04-28T11:18:48;98418.28;;;10.75;77.75
20710;BME280;10516;51.518;9.864;2023-04-28T11:21:17;98414.25;;;10.68;77.28
20710;BME280;10516;51.518;9.864;2023-04-28T11:23:43;98406.50;;;10.66;77.68
20710;BME280;10516;51.518;9.864;2023-04-28T11:26:08;98404.41;;;10.73;78.42
20710;BME280;10516;51.518;9.864;2023-04-28T11:28:33;98402.00;;;10.72;78.04
20710;BME280;10516;51.518;9.864;2023-04-28T11:31:10;98400.91;;;10.68;78.03
20710;BME280;10516;51.518;9.864;2023-04-28T11:33:36;98405.47;;;10.72;78.22
20710;BME280;10516;51.518;9.864;2023-04-28T11:36:02;98406.19;;;10.57;78.86
20710;BME280;10516;51.518;9.864;2023-04-28T11:38:27;98404.56;;;10.51;80.30
20710;BME280;10516;51.518;9.864;2023-04-28T11:40:59;98399.56;;;10.65;78.20
20710;BME280;10516;51.518;9.864;2023-04-28T11:43:30;98392.91;;;10.73;78.87
20710;BME280;10516;51.518;9.864;2023-04-28T11:45:56;98385.13;;;10.66;78.42
20710;BME280;10516;51.518;9.864;2023-04-28T11:48:21;98382.00;;;10.79;78.06
20710;BME280;10516;51.518;9.864;2023-04-28T11:50:46;98382.22;;;10.68;79.09
20710;BME280;10516;51.518;9.864;2023-04-28T11:53:12;98379.34;;;10.84;77.71
20710;BME280;10516;51.518;9.864;2023-04-28T11:55:37;98380.44;;;10.88;77.92
20710;BME280;10516;51.518;9.864;2023-04-28T11:58:21;98387.41;;;10.99;78.23
20710;BME280;10516;51.518;9.864;2023-04-28T12:03:31;98381.03;;;11.00;77.58
20710;BME280;10516;51.518;9.864;2023-04-28T12:05:57;98382.59;;;11.01;77.84
20710;BME280;10516;51.518;9.864;2023-04-28T12:08:28;98375.16;;;11.08;77.59
20710;BME280;10516;51.518;9.864;2023-04-28T12:11:07;98384.78;;;11.04;77.84
20710;BME280;10516;51.518;9.864;2023-04-28T12:13:33;98379.72;;;11.13;78.16
20710;BME280;10516;51.518;9.864;2023-04-28T12:16:00;98375.41;;;11.02;78.51
20710;BME280;10516;51.518;9.864;2023-04-28T12:18:26;98371.97;;;11.11;78.31
20710;BME280;10516;51.518;9.864;2023-04-28T12:20:51;98368.78;;;11.09;78.43
20710;BME280;10516;51.518;9.864;2023-04-28T12:23:27;98379.19;;;11.11;78.60
20710;BME280;10516;51.518;9.864;2023-04-28T12:25:52;98369.78;;;11.03;79.21
20710;BME280;10516;51.518;9.864;2023-04-28T12:28:18;98367.16;;;11.18;78.89
20710;BME280;10516;51.518;9.864;2023-04-28T12:30:43;98365.06;;;11.30;78.16
20710;BME280;10516;51.518;9.864;2023-04-28T12:33:24;98367.72;;;11.25;78.45
20710;BME280;10516;51.518;9.864;2023-04-28T12:35:49;98359.72;;;11.30;78.85
20710;BME280;10516;51.518;9.864;2023-04-28T12:38:15;98365.34;;;11.39;79.15
20710;BME280;10516;51.518;9.864;2023-04-28T12:40:41;98349.84;;;11.51;79.13
20710;BME280;10516;51.518;9.864;2023-04-28T12:43:06;98360.06;;;11.69;78.95
20710;BME280;10516;51.518;9.864;2023-04-28T12:45:31;98355.25;;;11.96;77.63
20710;BME280;10516;51.518;9.864;2023-04-28T12:47:57;98350.41;;;12.14;78.20
20710;BME280;10516;51.518;9.864;2023-04-28T12:50:22;98353.03;;;12.29;77.34
20710;BME280;10516;51.518;9.864;2023-04-28T12:52:48;98353.28;;;12.37;75.77
20710;BME280;10516;51.518;9.864;2023-04-28T12:55:13;98350.38;;;12.34;76.33
20710;BME280;10516;51.518;9.864;2023-04-28T12:57:39;98348.44;;;12.44;76.41
20710;BME280;10516;51.518;9.864;2023-04-28T13:00:04;98343.91;;;12.40;76.20
20710;BME280;10516;51.518;9.864;2023-04-28T13:02:30;98339.09;;;12.37;76.49
20710;BME280;10516;51.518;9.864;2023-04-28T13:04:55;98340.16;;;12.46;76.86
20710;BME280;10516;51.518;9.864;2023-04-28T13:07:20;98342.25;;;12.54;75.92
20710;BME280;10516;51.518;9.864;2023-04-28T13:09:46;98336.66;;;12.50;76.86
20710;BME280;10516;51.518;9.864;2023-04-28T13:12:11;98335.34;;;12.38;77.19
20710;BME280;10516;51.518;9.864;2023-04-28T13:14:37;98339.09;;;12.42;76.79
20710;BME280;10516;51.518;9.864;2023-04-28T13:17:03;98330.28;;;12.31;77.73
20710;BME280;10516;51.518;9.864;2023-04-28T13:19:28;98338.09;;;12.13;78.24
20710;BME280;10516;51.518;9.864;2023-04-28T13:21:55;98335.38;;;12.33;77.63
20710;BME280;10516;51.518;9.864;2023-04-28T13:24:20;98337.81;;;12.19;78.42
20710;BME280;10516;51.518;9.864;2023-04-28T13:26:45;98324.97;;;12.16;77.80
20710;BME280;10516;51.518;9.864;2023-04-28T13:29:11;98322.81;;;12.23;78.44
20710;BME280;10516;51.518;9.864;2023-04-28T13:31:36;98328.16;;;12.28;78.76